createdAt,value
2022-12-20T00:02:00.386Z,101089.64
2022-12-20T00:04:29.656Z,101083.55
2022-12-20T00:06:58.643Z,101082.79
2022-12-20T00:09:27.592Z,101082.23
2022-12-20T00:11:56.370Z,101076.79
2022-12-20T00:14:25.313Z,101071.22
2022-12-20T00:16:55.046Z,101066.61
2022-12-20T00:19:24.562Z,101064.48
2022-12-20T00:21:54.148Z,101061.73
2022-12-20T00:24:26.366Z,101060.77
2022-12-20T00:26:56.223Z,101053.21
2022-12-20T00:29:25.694Z,101050.09
2022-12-20T00:31:54.737Z,101050.34
2022-12-20T00:34:23.685Z,101047.05
2022-12-20T00:36:52.791Z,101045.26
2022-12-20T00:39:22.044Z,101048.52
2022-12-20T00:41:51.320Z,101049.50
2022-12-20T00:44:20.818Z,101052.02
2022-12-20T00:46:50.307Z,101051.52
2022-12-20T00:49:19.637Z,101046.69
2022-12-20T00:51:49.075Z,101042.85
2022-12-20T00:54:18.567Z,101038.39
2022-12-20T00:56:47.600Z,101037.98
2022-12-20T00:59:16.381Z,101034.83
2022-12-20T01:01:45.533Z,101031.48
2022-12-20T01:04:14.919Z,101027.84
2022-12-20T01:06:44.315Z,101023.58
2022-12-20T01:09:13.064Z,101018.20
2022-12-20T01:11:42.081Z,101015.20
2022-12-20T01:14:12.727Z,101012.84
2022-12-20T01:16:42.319Z,101011.02
2022-12-20T01:19:12.934Z,101011.52
2022-12-20T01:21:44.228Z,101006.79
2022-12-20T01:24:13.696Z,101007.55
2022-12-20T01:26:42.909Z,101009.52
2022-12-20T01:29:13.790Z,101007.70
2022-12-20T01:31:43.555Z,101006.02
2022-12-20T01:34:12.997Z,101001.22
2022-12-20T01:36:42.139Z,100989.67
2022-12-20T01:39:12.819Z,100986.58
2022-12-20T01:41:42.700Z,100976.03
2022-12-20T01:44:25.418Z,100969.34
2022-12-20T01:46:55.453Z,100966.92
2022-12-20T01:49:25.993Z,100957.26
2022-12-20T01:51:58.299Z,100952.77
2022-12-20T01:54:30.836Z,100950.44
2022-12-20T01:57:01.305Z,100941.70
2022-12-20T01:59:31.805Z,100931.25
2022-12-20T02:02:03.441Z,100930.26
2022-12-20T02:04:33.146Z,100925.97
2022-12-20T02:07:04.523Z,100921.63
2022-12-20T02:09:34.940Z,100925.30
2022-12-20T02:12:09.029Z,100927.42
2022-12-20T02:14:44.890Z,100927.73
2022-12-20T02:17:20.146Z,100924.04
2022-12-20T02:20:01.784Z,100923.23
2022-12-20T02:22:40.727Z,100920.00
2022-12-20T02:25:23.422Z,100914.68
2022-12-20T02:28:01.331Z,100907.33
2022-12-20T02:30:32.943Z,100905.35
2022-12-20T02:33:03.916Z,100910.34
2022-12-20T02:35:35.086Z,100914.19
2022-12-20T02:38:05.895Z,100910.57
2022-12-20T02:40:37.250Z,100906.42
2022-12-20T02:43:29.419Z,100911.14
2022-12-20T02:46:00.427Z,100910.30
2022-12-20T02:48:33.012Z,100912.04
2022-12-20T02:51:03.476Z,100906.52
2022-12-20T02:53:32.871Z,100902.85
2022-12-20T02:56:06.851Z,100903.81
2022-12-20T02:58:39.590Z,100900.70
2022-12-20T03:01:11.798Z,100889.52
2022-12-20T03:03:41.875Z,100886.82
2022-12-20T03:06:11.316Z,100876.13
2022-12-20T03:08:40.630Z,100876.70
2022-12-20T03:11:09.749Z,100878.11
2022-12-20T03:13:38.992Z,100878.57
2022-12-20T03:16:11.023Z,100874.33
2022-12-20T03:18:40.962Z,100872.73
2022-12-20T03:21:10.109Z,100876.15
2022-12-20T03:23:39.184Z,100878.91
2022-12-20T03:26:08.188Z,100897.27
2022-12-20T03:28:41.786Z,100889.20
2022-12-20T03:31:11.927Z,100886.65
2022-12-20T03:33:47.095Z,100886.63
2022-12-20T03:36:15.949Z,100870.64
2022-12-20T03:38:45.589Z,100881.09
2022-12-20T03:41:15.660Z,100878.61
2022-12-20T03:43:45.413Z,100864.44
2022-12-20T03:46:14.913Z,100865.48
2022-12-20T03:48:44.795Z,100867.68
2022-12-20T03:51:15.079Z,100868.92
2022-12-20T03:53:44.220Z,100872.27
2022-12-20T03:56:13.372Z,100874.40
2022-12-20T03:58:43.018Z,100880.42
2022-12-20T04:01:19.571Z,100881.06
2022-12-20T04:03:49.740Z,100880.80
2022-12-20T04:06:19.507Z,100879.98
2022-12-20T04:08:49.094Z,100878.14
2022-12-20T04:11:24.640Z,100880.86
2022-12-20T04:14:08.243Z,100880.32
2022-12-20T04:16:37.666Z,100871.55
2022-12-20T04:19:07.223Z,100859.92
2022-12-20T04:21:43.069Z,100851.23
2022-12-20T04:24:13.671Z,100847.48
2022-12-20T04:26:49.440Z,100843.95
2022-12-20T04:29:19.025Z,100844.61
2022-12-20T04:31:48.686Z,100848.88
2022-12-20T04:34:18.082Z,100843.55
2022-12-20T04:36:47.725Z,100843.65
2022-12-20T04:39:22.594Z,100845.83
2022-12-20T04:42:16.285Z,100856.27
2022-12-20T04:44:46.448Z,100860.44
2022-12-20T04:47:16.786Z,100858.45
2022-12-20T04:49:45.711Z,100857.45
2022-12-20T04:52:33.076Z,100861.56
2022-12-20T04:55:03.056Z,100861.33
2022-12-20T04:57:34.339Z,100861.54
2022-12-20T05:00:04.720Z,100858.76
2022-12-20T05:02:33.990Z,100852.77
2022-12-20T05:05:09.369Z,100852.71
2022-12-20T05:07:43.647Z,100846.54
2022-12-20T05:10:13.286Z,100844.00
2022-12-20T05:12:42.719Z,100838.46
2022-12-20T05:15:14.980Z,100829.91
2022-12-20T05:17:44.805Z,100824.92
2022-12-20T05:20:15.200Z,100826.09
2022-12-20T05:23:03.964Z,100825.58
2022-12-20T05:26:04.450Z,100827.71
2022-12-20T05:28:34.711Z,100829.52
2022-12-20T05:31:04.353Z,100824.13
2022-12-20T05:33:35.547Z,100816.27
2022-12-20T05:36:05.710Z,100813.77
2022-12-20T05:38:36.166Z,100811.36
2022-12-20T05:41:06.397Z,100813.90
2022-12-20T05:43:36.282Z,100813.00
2022-12-20T05:46:06.739Z,100817.83
2022-12-20T05:48:45.034Z,100822.18
2022-12-20T05:51:14.436Z,100820.77
2022-12-20T05:53:59.548Z,100822.42
2022-12-20T05:56:42.065Z,100821.89
2022-12-20T05:59:11.281Z,100827.87
2022-12-20T06:01:41.056Z,100825.91
2022-12-20T06:04:10.638Z,100823.59
2022-12-20T06:06:40.158Z,100821.84
2022-12-20T06:09:10.234Z,100821.96
2022-12-20T06:11:47.328Z,100821.64
2022-12-20T06:14:17.741Z,100819.08
2022-12-20T06:16:49.907Z,100818.54
2022-12-20T06:19:21.793Z,100817.03
2022-12-20T06:21:53.843Z,100819.02
2022-12-20T06:24:30.255Z,100820.98
2022-12-20T06:26:59.614Z,100828.52
2022-12-20T06:29:29.639Z,100830.85
2022-12-20T06:32:06.578Z,100829.45
2022-12-20T06:34:36.227Z,100823.91
2022-12-20T06:37:05.319Z,100821.25
2022-12-20T06:39:35.953Z,100824.78
2022-12-20T06:42:07.436Z,100821.34
2022-12-20T06:44:37.935Z,100817.75
2022-12-20T06:47:07.324Z,100818.77
2022-12-20T06:49:36.581Z,100824.27
2022-12-20T06:52:17.797Z,100829.30
2022-12-20T06:54:52.574Z,100832.95
2022-12-20T06:57:22.992Z,100837.55
2022-12-20T06:59:52.736Z,100842.59
2022-12-20T07:02:22.250Z,100841.90
2022-12-20T07:04:53.396Z,100841.70
2022-12-20T07:07:22.917Z,100844.75
2022-12-20T07:09:52.209Z,100845.69
2022-12-20T07:12:21.538Z,100844.10
2022-12-20T07:14:51.642Z,100845.42
2022-12-20T07:17:21.291Z,100849.74
2022-12-20T07:19:51.290Z,100848.33
2022-12-20T07:22:20.358Z,100846.83
2022-12-20T07:24:49.986Z,100841.02
2022-12-20T07:27:19.417Z,100837.73
2022-12-20T07:29:48.231Z,100837.48
2022-12-20T07:32:17.829Z,100837.73
2022-12-20T07:34:47.162Z,100836.27
2022-12-20T07:37:16.509Z,100836.92
2022-12-20T07:39:45.640Z,100838.13
2022-12-20T07:42:15.202Z,100838.92
2022-12-20T07:44:45.062Z,100838.67
2022-12-20T07:47:14.725Z,100834.60
2022-12-20T07:49:44.212Z,100837.30
2022-12-20T07:52:15.043Z,100835.80
2022-12-20T07:54:46.274Z,100832.14
2022-12-20T07:57:16.673Z,100838.10
2022-12-20T07:59:50.064Z,100837.52
2022-12-20T08:02:22.787Z,100836.91
2022-12-20T08:04:53.090Z,100834.16
2022-12-20T08:07:22.651Z,100836.29
2022-12-20T08:09:52.047Z,100842.96
2022-12-20T08:12:22.071Z,100847.64
2022-12-20T08:14:55.671Z,100846.85
2022-12-20T08:17:24.832Z,100847.63
2022-12-20T08:19:54.207Z,100843.66
2022-12-20T08:22:23.368Z,100840.92
2022-12-20T08:24:52.603Z,100840.69
2022-12-20T08:27:21.804Z,100837.98
2022-12-20T08:29:51.137Z,100834.27
2022-12-20T08:32:20.485Z,100827.46
2022-12-20T08:34:52.451Z,100823.39
2022-12-20T08:37:22.035Z,100821.41
2022-12-20T08:39:51.780Z,100827.58
2022-12-20T08:42:20.929Z,100824.80
2022-12-20T08:44:50.475Z,100818.34
2022-12-20T08:47:20.114Z,100818.77
2022-12-20T08:49:49.084Z,100818.98
2022-12-20T08:52:18.254Z,100826.40
2022-12-20T08:54:47.603Z,100826.63
2022-12-20T08:57:16.630Z,100824.93
2022-12-20T08:59:45.660Z,100817.95
2022-12-20T09:02:15.047Z,100812.18
2022-12-20T09:04:45.011Z,100820.16
2022-12-20T09:07:13.890Z,100824.56
2022-12-20T09:09:42.775Z,100822.70
2022-12-20T09:12:12.097Z,100817.70
2022-12-20T09:14:41.711Z,100819.54
2022-12-20T09:17:11.517Z,100819.46
2022-12-20T09:19:40.885Z,100816.52
2022-12-20T09:22:09.963Z,100811.73
2022-12-20T09:24:39.763Z,100807.53
2022-12-20T09:27:09.343Z,100809.31
2022-12-20T09:29:38.379Z,100811.33
2022-12-20T09:32:08.463Z,100811.35
2022-12-20T09:34:37.935Z,100805.80
2022-12-20T09:37:07.283Z,100798.95
2022-12-20T09:39:36.594Z,100793.39
2022-12-20T09:42:08.941Z,100795.42
2022-12-20T09:44:40.464Z,100795.52
2022-12-20T09:47:14.989Z,100793.08
2022-12-20T09:49:46.152Z,100796.41
2022-12-20T09:52:33.301Z,100797.48
2022-12-20T09:55:10.533Z,100801.02
2022-12-20T09:57:48.956Z,100808.47
2022-12-20T10:00:19.584Z,100811.05
2022-12-20T10:03:02.465Z,100810.34
2022-12-20T10:05:42.253Z,100808.70
2022-12-20T10:08:16.353Z,100802.63
2022-12-20T10:10:52.311Z,100802.65
2022-12-20T10:13:29.531Z,100804.34
2022-12-20T10:16:01.335Z,100804.63
2022-12-20T10:18:40.219Z,100797.06
2022-12-20T10:21:11.329Z,100797.30
2022-12-20T10:23:45.328Z,100796.34
2022-12-20T10:26:15.004Z,100796.05
2022-12-20T10:28:46.867Z,100798.20
2022-12-20T10:31:20.549Z,100801.98
2022-12-20T10:33:50.116Z,100798.33
2022-12-20T10:36:20.131Z,100795.17
2022-12-20T10:38:50.267Z,100790.55
2022-12-20T10:41:22.202Z,100786.46
2022-12-20T10:43:55.960Z,100786.36
2022-12-20T10:46:35.271Z,100776.95
2022-12-20T10:49:22.249Z,100769.50
2022-12-20T10:51:54.367Z,100768.76
2022-12-20T10:54:24.307Z,100772.87
2022-12-20T10:56:57.625Z,100766.49
2022-12-20T10:59:30.697Z,100762.98
2022-12-20T11:01:59.993Z,100759.77
2022-12-20T11:04:30.369Z,100756.71
2022-12-20T11:07:00.701Z,100748.35
2022-12-20T11:09:31.642Z,100741.45
2022-12-20T11:12:01.831Z,100730.11
2022-12-20T11:14:38.877Z,100722.56
2022-12-20T11:17:21.818Z,100718.84
2022-12-20T11:19:58.537Z,100707.94
2022-12-20T11:22:34.714Z,100699.84
2022-12-20T11:25:08.684Z,100697.02
2022-12-20T11:27:41.015Z,100704.56
2022-12-20T11:30:15.804Z,100709.09
2022-12-20T11:32:56.163Z,100715.23
2022-12-20T11:35:27.827Z,100717.85
2022-12-20T11:38:08.910Z,100720.88
2022-12-20T11:40:42.143Z,100719.42
2022-12-20T11:43:22.932Z,100716.75
2022-12-20T11:45:59.229Z,100713.33
2022-12-20T11:48:37.819Z,100706.83
2022-12-20T11:51:15.560Z,100707.56
2022-12-20T11:53:48.952Z,100701.64
2022-12-20T11:56:21.627Z,100699.35
2022-12-20T11:58:52.890Z,100700.80
2022-12-20T12:01:25.309Z,100695.67
2022-12-20T12:03:59.544Z,100694.57
2022-12-20T12:06:31.147Z,100691.04
2022-12-20T12:09:05.732Z,100698.49
2022-12-20T12:12:06.057Z,100702.61
2022-12-20T12:14:34.629Z,100698.47
2022-12-20T12:17:08.071Z,100698.59
2022-12-20T12:19:41.629Z,100693.13
2022-12-20T12:22:15.926Z,100690.05
2022-12-20T12:24:48.360Z,100688.59
2022-12-20T12:27:22.460Z,100688.06
2022-12-20T12:29:53.732Z,100680.98
2022-12-20T12:32:26.390Z,100686.34
2022-12-20T12:35:04.209Z,100693.95
2022-12-20T12:37:46.040Z,100687.64
2022-12-20T12:40:30.674Z,100692.27
2022-12-20T12:43:16.787Z,100691.35
2022-12-20T12:45:47.703Z,100695.76
2022-12-20T12:48:18.987Z,100693.31
2022-12-20T12:50:49.500Z,100686.38
2022-12-20T12:53:21.406Z,100686.61
2022-12-20T12:55:51.207Z,100683.12
2022-12-20T12:58:41.506Z,100684.45
2022-12-20T13:01:34.171Z,100681.43
2022-12-20T13:04:23.482Z,100686.57
2022-12-20T13:07:02.919Z,100690.75
2022-12-20T13:09:42.099Z,100686.69
2022-12-20T13:12:29.755Z,100687.67
2022-12-20T13:14:58.809Z,100687.66
2022-12-20T13:17:49.162Z,100691.35
2022-12-20T13:20:22.972Z,100691.61
2022-12-20T13:23:14.327Z,100700.98
2022-12-20T13:25:45.409Z,100708.62
2022-12-20T13:28:32.288Z,100712.10
2022-12-20T13:31:20.417Z,100706.30
2022-12-20T13:33:50.192Z,100708.46
2022-12-20T13:36:33.368Z,100707.71
2022-12-20T13:39:04.907Z,100709.04
2022-12-20T13:41:41.085Z,100711.06
2022-12-20T13:44:34.116Z,100711.52
2022-12-20T13:47:07.455Z,100712.59
2022-12-20T13:49:38.045Z,100717.64
2022-12-20T13:52:36.482Z,100720.52
2022-12-20T13:55:08.719Z,100721.59
2022-12-20T13:57:42.175Z,100719.17
2022-12-20T14:00:16.935Z,100718.65
2022-12-20T14:02:46.921Z,100712.46
2022-12-20T14:05:18.203Z,100707.01
2022-12-20T14:07:49.098Z,100693.52
2022-12-20T14:10:21.434Z,100690.40
2022-12-20T14:12:51.727Z,100690.46
2022-12-20T14:15:24.461Z,100682.32
2022-12-20T14:17:53.634Z,100679.94
2022-12-20T14:20:24.664Z,100687.81
2022-12-20T14:23:02.608Z,100687.25
2022-12-20T14:25:37.481Z,100685.63
2022-12-20T14:28:13.918Z,100687.11
2022-12-20T14:30:44.632Z,100681.88
2022-12-20T14:33:20.939Z,100681.55
2022-12-20T14:35:50.766Z,100681.05
2022-12-20T14:38:25.340Z,100684.44
2022-12-20T14:40:55.658Z,100688.30
2022-12-20T14:43:27.187Z,100689.41
2022-12-20T14:46:16.434Z,100692.70
2022-12-20T14:48:46.270Z,100688.87
2022-12-20T14:51:20.089Z,100692.20
2022-12-20T14:53:51.387Z,100690.80
2022-12-20T14:56:26.438Z,100687.62
2022-12-20T14:59:12.966Z,100684.77
2022-12-20T15:01:44.554Z,100680.02
2022-12-20T15:04:24.767Z,100673.98
2022-12-20T15:06:53.701Z,100670.10
2022-12-20T15:09:23.112Z,100662.83
2022-12-20T15:11:52.668Z,100655.31
2022-12-20T15:14:28.928Z,100658.86
2022-12-20T15:16:58.578Z,100654.52
2022-12-20T15:19:28.141Z,100652.67
2022-12-20T15:21:57.795Z,100653.06
2022-12-20T15:24:27.881Z,100659.98
2022-12-20T15:26:57.258Z,100650.97
2022-12-20T15:29:27.414Z,100646.39
2022-12-20T15:32:01.323Z,100643.46
2022-12-20T15:34:32.835Z,100645.79
2022-12-20T15:37:02.718Z,100647.73
2022-12-20T15:39:31.812Z,100649.95
2022-12-20T15:42:02.037Z,100646.95
2022-12-20T15:44:31.904Z,100651.84
2022-12-20T15:47:01.304Z,100646.27
2022-12-20T15:49:31.883Z,100644.63
2022-12-20T15:52:01.504Z,100640.05
2022-12-20T15:54:32.402Z,100632.66
2022-12-20T15:57:03.104Z,100625.46
2022-12-20T15:59:58.979Z,100630.06
2022-12-20T16:02:22.699Z,100639.33
2022-12-20T16:04:52.849Z,100638.99
2022-12-20T16:07:22.294Z,100639.52
2022-12-20T16:09:51.658Z,100639.81
2022-12-20T16:12:23.682Z,100636.95
2022-12-20T16:14:53.280Z,100633.67
2022-12-20T16:17:22.463Z,100631.95
2022-12-20T16:19:51.994Z,100630.00
2022-12-20T16:22:22.495Z,100632.13
2022-12-20T16:24:52.209Z,100641.09
2022-12-20T16:27:21.727Z,100645.70
2022-12-20T16:29:50.713Z,100644.23
2022-12-20T16:32:21.345Z,100643.90
2022-12-20T16:34:50.686Z,100640.26
2022-12-20T16:37:20.708Z,100641.02
2022-12-20T16:39:49.808Z,100640.28
2022-12-20T16:42:21.633Z,100643.19
2022-12-20T16:44:52.055Z,100641.34
2022-12-20T16:47:21.356Z,100637.09
2022-12-20T16:49:53.429Z,100632.59
2022-12-20T16:52:23.347Z,100632.26
2022-12-20T16:54:52.765Z,100633.83
2022-12-20T16:57:22.131Z,100628.91
2022-12-20T16:59:51.858Z,100635.34
2022-12-20T17:02:24.648Z,100638.09
2022-12-20T17:04:54.254Z,100632.79
2022-12-20T17:07:23.628Z,100629.88
2022-12-20T17:10:11.353Z,100629.72
2022-12-20T17:12:41.115Z,100628.30
2022-12-20T17:15:15.548Z,100624.58
2022-12-20T17:17:44.287Z,100633.34
2022-12-20T17:20:14.183Z,100639.61
2022-12-20T17:25:33.754Z,100619.23
2022-12-20T17:28:02.989Z,100602.17
2022-12-20T17:30:32.539Z,100584.99
2022-12-20T17:33:01.749Z,100569.96
2022-12-20T17:35:32.404Z,100573.80
2022-12-20T17:38:02.383Z,100585.08
2022-12-20T17:40:31.574Z,100592.77
2022-12-20T17:43:00.847Z,100600.02
2022-12-20T17:45:32.081Z,100602.42
2022-12-20T17:48:01.484Z,100592.78
2022-12-20T17:50:30.690Z,100597.36
2022-12-20T17:52:59.644Z,100602.55
2022-12-20T17:55:29.230Z,100594.67
2022-12-20T17:57:59.033Z,100591.33
2022-12-20T18:00:38.950Z,100591.75
2022-12-20T18:03:20.048Z,100594.67
2022-12-20T18:06:07.551Z,100595.85
2022-12-20T18:08:37.924Z,100591.44
2022-12-20T18:11:07.540Z,100588.51
2022-12-20T18:13:37.112Z,100586.86
2022-12-20T18:16:07.522Z,100581.33
2022-12-20T18:18:37.299Z,100578.68
2022-12-20T18:21:07.664Z,100571.84
2022-12-20T18:23:37.940Z,100568.86
2022-12-20T18:26:09.025Z,100565.58
2022-12-20T18:28:39.026Z,100571.45
2022-12-20T18:31:09.280Z,100574.98
2022-12-20T18:33:39.288Z,100579.46
2022-12-20T18:36:09.597Z,100578.25
2022-12-20T18:38:39.987Z,100575.98
2022-12-20T18:41:11.705Z,100579.70
2022-12-20T18:43:42.098Z,100571.97
2022-12-20T18:46:12.699Z,100572.46
2022-12-20T18:48:43.556Z,100577.13
2022-12-20T18:51:14.172Z,100575.73
2022-12-20T18:53:46.757Z,100572.05
2022-12-20T18:56:16.716Z,100569.21
2022-12-20T18:58:47.350Z,100576.36
2022-12-20T19:01:19.599Z,100574.80
2022-12-20T19:03:49.273Z,100579.43
2022-12-20T19:06:19.279Z,100582.57
2022-12-20T19:08:49.016Z,100585.00
2022-12-20T19:11:23.054Z,100578.14
2022-12-20T19:13:52.598Z,100581.19
2022-12-20T19:16:24.531Z,100579.84
2022-12-20T19:18:55.172Z,100574.13
2022-12-20T19:21:26.496Z,100574.23
2022-12-20T19:23:57.603Z,100575.66
2022-12-20T19:26:27.908Z,100570.10
2022-12-20T19:29:00.907Z,100567.38
2022-12-20T19:31:34.801Z,100560.98
2022-12-20T19:34:08.362Z,100555.45
2022-12-20T19:36:40.109Z,100557.08
2022-12-20T19:39:13.256Z,100551.83
2022-12-20T19:41:54.893Z,100552.25
2022-12-20T19:44:34.012Z,100556.39
2022-12-20T19:47:06.949Z,100556.95
2022-12-20T19:49:37.462Z,100559.45
2022-12-20T19:52:08.539Z,100566.77
2022-12-20T19:54:39.667Z,100563.45
2022-12-20T19:57:09.284Z,100561.35
2022-12-20T19:59:39.589Z,100558.65
2022-12-20T20:02:11.056Z,100550.46
2022-12-20T20:04:42.302Z,100544.82
2022-12-20T20:07:11.576Z,100542.88
2022-12-20T20:09:40.985Z,100539.72
2022-12-20T20:12:10.809Z,100539.10
2022-12-20T20:14:41.121Z,100541.36
2022-12-20T20:17:11.158Z,100535.88
2022-12-20T20:19:42.693Z,100531.91
2022-12-20T20:22:12.487Z,100529.14
2022-12-20T20:24:44.325Z,100524.30
2022-12-20T20:27:15.112Z,100510.45
2022-12-20T20:29:44.984Z,100504.63
2022-12-20T20:32:15.316Z,100500.31
2022-12-20T20:34:45.686Z,100500.85
2022-12-20T20:37:15.956Z,100498.53
2022-12-20T20:39:45.549Z,100500.88
2022-12-20T20:42:18.501Z,100497.40
2022-12-20T20:44:52.612Z,100502.87
2022-12-20T20:47:23.110Z,100503.65
2022-12-20T20:49:52.925Z,100506.94
2022-12-20T20:52:23.434Z,100506.75
2022-12-20T20:54:53.534Z,100510.48
2022-12-20T20:57:23.391Z,100514.63
2022-12-20T20:59:53.270Z,100519.67
2022-12-20T21:02:24.230Z,100517.27
2022-12-20T21:05:35.770Z,100509.52
2022-12-20T21:07:45.303Z,100503.73
2022-12-20T21:10:14.695Z,100504.02
2022-12-20T21:12:44.361Z,100503.12
2022-12-20T21:15:22.894Z,100501.43
2022-12-20T21:17:53.214Z,100504.92
2022-12-20T21:20:26.288Z,100507.77
2022-12-20T21:22:56.995Z,100497.96
2022-12-20T21:25:26.314Z,100496.31
2022-12-20T21:27:56.192Z,100498.17
2022-12-20T21:30:25.822Z,100496.52
2022-12-20T21:32:55.006Z,100496.48
2022-12-20T21:35:24.175Z,100492.13
2022-12-20T21:37:53.197Z,100492.40
2022-12-20T21:40:22.966Z,100493.52
2022-12-20T21:42:51.773Z,100491.70
2022-12-20T21:45:21.678Z,100490.07
2022-12-20T21:47:51.025Z,100493.16
2022-12-20T21:50:20.111Z,100494.41
2022-12-20T21:52:49.639Z,100485.48
2022-12-20T21:55:19.050Z,100488.76
2022-12-20T21:57:48.348Z,100491.05
2022-12-20T22:00:19.397Z,100487.28
2022-12-20T22:02:48.446Z,100481.85
2022-12-20T22:05:17.670Z,100482.05
2022-12-20T22:07:47.439Z,100485.11
2022-12-20T22:10:16.736Z,100483.58
2022-12-20T22:12:46.499Z,100478.75
2022-12-20T22:15:15.865Z,100470.27
2022-12-20T22:17:45.000Z,100466.67
2022-12-20T22:20:14.499Z,100462.92
2022-12-20T22:22:43.885Z,100459.14
2022-12-20T22:25:13.344Z,100457.86
2022-12-20T22:27:42.791Z,100453.10
2022-12-20T22:30:12.679Z,100441.96
2022-12-20T22:32:42.192Z,100443.98
2022-12-20T22:35:11.576Z,100446.64
2022-12-20T22:37:40.895Z,100444.98
2022-12-20T22:40:11.105Z,100447.67
2022-12-20T22:42:40.840Z,100452.39
2022-12-20T22:45:10.858Z,100451.81
2022-12-20T22:50:28.809Z,100442.86
2022-12-20T22:52:58.813Z,100440.04
2022-12-20T22:55:27.998Z,100437.67
2022-12-20T22:57:57.671Z,100436.72
2022-12-20T23:00:26.879Z,100430.21
2022-12-20T23:02:56.922Z,100422.56
2022-12-20T23:05:26.469Z,100418.70
2022-12-20T23:07:55.841Z,100412.37
2022-12-20T23:10:43.773Z,100411.34
2022-12-20T23:13:31.532Z,100409.75
2022-12-20T23:16:00.847Z,100415.25
2022-12-20T23:18:30.040Z,100410.73
2022-12-20T23:21:17.452Z,100404.25
2022-12-20T23:23:50.913Z,100396.80
2022-12-20T23:26:23.943Z,100398.79
2022-12-20T23:28:53.059Z,100396.21
2022-12-20T23:31:21.863Z,100397.30
2022-12-20T23:33:51.007Z,100403.49
2022-12-20T23:36:20.153Z,100402.88
2022-12-20T23:38:49.533Z,100394.48
2022-12-20T23:41:18.609Z,100390.48
2022-12-20T23:43:48.001Z,100379.23
2022-12-20T23:46:18.884Z,100367.99
2022-12-20T23:48:48.233Z,100369.85
2022-12-20T23:51:17.633Z,100368.08
2022-12-20T23:53:46.705Z,100357.20
2022-12-20T23:56:16.534Z,100354.96
2022-12-20T23:58:45.718Z,100355.98
